sensor_id;sensor_type;location;lat;lon;timestamp;pressure;altitude;pressure_sealevel;temperature;humidity
75617;BME280;64200;55.426;37.758;2024-02-21T00:01:39;100131.78;;;-6.57;62.92
75617;BME280;64200;55.426;37.758;2024-02-21T00:06:40;100125.91;;;-6.59;63.76
75617;BME280;64200;55.426;37.758;2024-02-21T00:11:40;100112.66;;;-6.36;62.63
75617;BME280;64200;55.426;37.758;2024-02-21T00:16:41;100103.84;;;-6.20;62.13
75617;BME280;64200;55.426;37.758;2024-02-21T00:21:41;100112.88;;;-6.53;63.41
75617;BME280;64200;55.426;37.758;2024-02-21T00:26:42;100111.28;;;-6.05;61.59
75617;BME280;64200;55.426;37.758;2024-02-21T00:31:42;100105.84;;;-6.05;62.58
75617;BME280;64200;55.426;37.758;2024-02-21T00:36:45;100117.72;;;-5.97;62.38
75617;BME280;64200;55.426;37.758;2024-02-21T00:41:45;100099.22;;;-6.32;62.66
75617;BME280;64200;55.426;37.758;2024-02-21T00:46:46;100092.00;;;-6.00;62.07
75617;BME280;64200;55.426;37.758;2024-02-21T00:51:47;100105.63;;;-6.12;62.46
75617;BME280;64200;55.426;37.758;2024-02-21T00:56:47;100100.00;;;-5.91;62.85
75617;BME280;64200;55.426;37.758;2024-02-21T01:01:48;100095.41;;;-6.03;62.57
75617;BME280;64200;55.426;37.758;2024-02-21T01:06:49;100089.34;;;-6.24;62.97
75617;BME280;64200;55.426;37.758;2024-02-21T01:11:49;100082.03;;;-5.55;61.57
75617;BME280;64200;55.426;37.758;2024-02-21T01:16:50;100088.09;;;-5.45;61.09
75617;BME280;64200;55.426;37.758;2024-02-21T01:21:50;100080.50;;;-5.80;61.66
75617;BME280;64200;55.426;37.758;2024-02-21T01:26:51;100082.78;;;-5.83;62.72
75617;BME280;64200;55.426;37.758;2024-02-21T01:31:51;100066.69;;;-5.75;62.75
75617;BME280;64200;55.426;37.758;2024-02-21T01:36:52;100071.09;;;-5.99;63.86
75617;BME280;64200;55.426;37.758;2024-02-21T01:41:52;100057.69;;;-5.92;63.41
75617;BME280;64200;55.426;37.758;2024-02-21T01:46:53;100062.66;;;-6.22;64.38
75617;BME280;64200;55.426;37.758;2024-02-21T01:51:54;100045.78;;;-5.87;64.23
75617;BME280;64200;55.426;37.758;2024-02-21T01:56:55;100049.44;;;-5.67;63.30
75617;BME280;64200;55.426;37.758;2024-02-21T02:01:55;100045.59;;;-5.94;63.88
75617;BME280;64200;55.426;37.758;2024-02-21T02:07:00;100055.75;;;-5.35;62.68
75617;BME280;64200;55.426;37.758;2024-02-21T02:12:03;100053.06;;;-5.63;63.29
75617;BME280;64200;55.426;37.758;2024-02-21T02:17:04;100046.50;;;-5.18;62.10
75617;BME280;64200;55.426;37.758;2024-02-21T02:22:12;100056.28;;;-5.29;62.50
75617;BME280;64200;55.426;37.758;2024-02-21T02:27:15;100047.56;;;-5.51;63.45
75617;BME280;64200;55.426;37.758;2024-02-21T02:32:16;100047.00;;;-5.28;63.02
75617;BME280;64200;55.426;37.758;2024-02-21T02:37:16;100036.13;;;-5.28;62.63
75617;BME280;64200;55.426;37.758;2024-02-21T02:42:17;100042.59;;;-5.17;62.75
75617;BME280;64200;55.426;37.758;2024-02-21T02:47:17;100040.34;;;-5.15;61.92
75617;BME280;64200;55.426;37.758;2024-02-21T02:52:18;100041.91;;;-4.98;61.93
75617;BME280;64200;55.426;37.758;2024-02-21T02:57:18;100026.72;;;-5.31;63.30
75617;BME280;64200;55.426;37.758;2024-02-21T03:02:19;100040.97;;;-5.05;62.30
75617;BME280;64200;55.426;37.758;2024-02-21T03:07:20;100028.94;;;-5.04;62.57
75617;BME280;64200;55.426;37.758;2024-02-21T03:12:20;100040.66;;;-5.32;63.20
75617;BME280;64200;55.426;37.758;2024-02-21T03:17:27;100031.84;;;-4.97;62.67
75617;BME280;64200;55.426;37.758;2024-02-21T03:22:28;100051.06;;;-5.06;62.69
75617;BME280;64200;55.426;37.758;2024-02-21T03:27:29;100025.59;;;-4.98;62.82
75617;BME280;64200;55.426;37.758;2024-02-21T03:32:29;100024.09;;;-4.63;62.19
75617;BME280;64200;55.426;37.758;2024-02-21T03:37:30;100021.72;;;-5.13;63.30
75617;BME280;64200;55.426;37.758;2024-02-21T03:42:30;100014.94;;;-4.71;62.25
75617;BME280;64200;55.426;37.758;2024-02-21T03:47:31;100025.50;;;-4.69;62.11
75617;BME280;64200;55.426;37.758;2024-02-21T03:52:32;100027.13;;;-5.00;63.20
75617;BME280;64200;55.426;37.758;2024-02-21T03:57:33;100016.13;;;-4.72;62.41
75617;BME280;64200;55.426;37.758;2024-02-21T04:02:33;100032.03;;;-5.06;63.19
75617;BME280;64200;55.426;37.758;2024-02-21T04:07:34;100026.31;;;-4.85;63.19
75617;BME280;64200;55.426;37.758;2024-02-21T04:12:34;100035.28;;;-5.00;63.90
75617;BME280;64200;55.426;37.758;2024-02-21T04:17:36;100027.38;;;-4.89;63.59
75617;BME280;64200;55.426;37.758;2024-02-21T04:22:36;100026.09;;;-4.60;62.76
75617;BME280;64200;55.426;37.758;2024-02-21T04:27:40;100035.41;;;-4.61;62.71
75617;BME280;64200;55.426;37.758;2024-02-21T04:32:41;100046.47;;;-4.86;63.02
75617;BME280;64200;55.426;37.758;2024-02-21T04:37:41;100036.34;;;-4.37;62.13
75617;BME280;64200;55.426;37.758;2024-02-21T04:42:42;100036.31;;;-4.89;63.86
75617;BME280;64200;55.426;37.758;2024-02-21T04:47:42;100032.63;;;-4.81;63.92
75617;BME280;64200;55.426;37.758;2024-02-21T04:52:43;100027.66;;;-4.59;63.26
75617;BME280;64200;55.426;37.758;2024-02-21T04:57:44;100044.88;;;-4.71;63.49
75617;BME280;64200;55.426;37.758;2024-02-21T05:02:44;100047.97;;;-4.72;63.60
75617;BME280;64200;55.426;37.758;2024-02-21T05:07:45;100036.75;;;-4.35;62.46
75617;BME280;64200;55.426;37.758;2024-02-21T05:12:45;100021.88;;;-4.57;62.59
75617;BME280;64200;55.426;37.758;2024-02-21T05:17:46;100044.34;;;-4.61;62.74
75617;BME280;64200;55.426;37.758;2024-02-21T05:22:46;100040.50;;;-4.24;62.15
75617;BME280;64200;55.426;37.758;2024-02-21T05:27:47;100038.25;;;-4.02;62.00
75617;BME280;64200;55.426;37.758;2024-02-21T05:32:48;100032.50;;;-4.52;63.06
75617;BME280;64200;55.426;37.758;2024-02-21T05:37:49;100038.84;;;-4.29;62.66
75617;BME280;64200;55.426;37.758;2024-02-21T05:42:52;100032.28;;;-4.08;61.91
75617;BME280;64200;55.426;37.758;2024-02-21T05:47:53;100033.25;;;-4.36;62.45
75617;BME280;64200;55.426;37.758;2024-02-21T05:52:54;100039.66;;;-4.09;61.86
75617;BME280;64200;55.426;37.758;2024-02-21T05:57:55;100045.03;;;-4.12;61.84
75617;BME280;64200;55.426;37.758;2024-02-21T06:02:56;100041.78;;;-4.37;62.43
75617;BME280;64200;55.426;37.758;2024-02-21T06:07:57;100040.97;;;-4.02;61.19
75617;BME280;64200;55.426;37.758;2024-02-21T06:12:57;100026.56;;;-3.83;60.92
75617;BME280;64200;55.426;37.758;2024-02-21T06:17:58;100034.97;;;-3.92;60.99
75617;BME280;64200;55.426;37.758;2024-02-21T06:22:58;100033.31;;;-3.77;61.24
75617;BME280;64200;55.426;37.758;2024-02-21T06:27:59;100028.28;;;-3.75;60.46
75617;BME280;64200;55.426;37.758;2024-02-21T06:32:59;100032.81;;;-4.02;61.43
75617;BME280;64200;55.426;37.758;2024-02-21T06:38:00;100033.47;;;-3.70;61.33
75617;BME280;64200;55.426;37.758;2024-02-21T06:43:01;100050.31;;;-3.84;61.25
75617;BME280;64200;55.426;37.758;2024-02-21T06:48:02;100049.34;;;-3.53;59.59
75617;BME280;64200;55.426;37.758;2024-02-21T06:53:02;100046.25;;;-3.08;59.30
75617;BME280;64200;55.426;37.758;2024-02-21T06:58:03;100036.81;;;-3.57;61.05
75617;BME280;64200;55.426;37.758;2024-02-21T07:03:03;100056.94;;;-3.23;59.58
75617;BME280;64200;55.426;37.758;2024-02-21T07:08:04;100039.00;;;-3.24;59.18
75617;BME280;64200;55.426;37.758;2024-02-21T07:13:04;100035.53;;;-3.21;59.50
75617;BME280;64200;55.426;37.758;2024-02-21T07:18:05;100026.22;;;-2.70;58.20
75617;BME280;64200;55.426;37.758;2024-02-21T07:23:05;100023.25;;;-2.04;56.48
75617;BME280;64200;55.426;37.758;2024-02-21T07:28:06;100025.78;;;-1.13;53.96
75617;BME280;64200;55.426;37.758;2024-02-21T07:33:07;100026.13;;;-1.59;55.53
75617;BME280;64200;55.426;37.758;2024-02-21T07:38:07;100010.97;;;-0.60;52.69
75617;BME280;64200;55.426;37.758;2024-02-21T07:43:12;100003.16;;;0.23;51.83
75617;BME280;64200;55.426;37.758;2024-02-21T07:48:13;100027.72;;;-0.13;49.89
75617;BME280;64200;55.426;37.758;2024-02-21T07:53:15;100027.09;;;0.26;48.93
75617;BME280;64200;55.426;37.758;2024-02-21T07:58:15;100033.13;;;0.93;47.33
75617;BME280;64200;55.426;37.758;2024-02-21T08:03:16;100032.75;;;0.98;47.26
75617;BME280;64200;55.426;37.758;2024-02-21T08:08:18;100024.50;;;1.63;45.43
75617;BME280;64200;55.426;37.758;2024-02-21T08:13:20;100020.56;;;3.65;42.12
75617;BME280;64200;55.426;37.758;2024-02-21T08:18:21;100034.53;;;2.24;44.38
75617;BME280;64200;55.426;37.758;2024-02-21T08:23:23;100029.44;;;2.22;43.73
75617;BME280;64200;55.426;37.758;2024-02-21T08:28:26;100029.59;;;1.43;44.49
75617;BME280;64200;55.426;37.758;2024-02-21T08:33:26;100015.59;;;-0.08;47.80
75617;BME280;64200;55.426;37.758;2024-02-21T08:38:28;100012.13;;;-0.61;49.31
75617;BME280;64200;55.426;37.758;2024-02-21T08:43:28;100028.13;;;-0.70;49.90
75617;BME280;64200;55.426;37.758;2024-02-21T08:48:31;100016.34;;;-0.11;49.51
75617;BME280;64200;55.426;37.758;2024-02-21T08:53:31;100011.56;;;-0.84;51.14
75617;BME280;64200;55.426;37.758;2024-02-21T08:58:32;100023.44;;;-1.14;51.85
75617;BME280;64200;55.426;37.758;2024-02-21T09:03:33;100004.34;;;-1.48;52.25
75617;BME280;64200;55.426;37.758;2024-02-21T09:08:34;100019.69;;;-0.43;51.50
75617;BME280;64200;55.426;37.758;2024-02-21T09:13:34;99999.97;;;0.03;49.46
75617;BME280;64200;55.426;37.758;2024-02-21T09:18:35;99994.47;;;-1.19;51.51
75617;BME280;64200;55.426;37.758;2024-02-21T09:23:35;99993.81;;;-1.05;51.14
75617;BME280;64200;55.426;37.758;2024-02-21T09:28:36;99989.81;;;-1.15;51.96
75617;BME280;64200;55.426;37.758;2024-02-21T09:33:36;99985.47;;;-0.67;51.42
75617;BME280;64200;55.426;37.758;2024-02-21T09:38:40;99987.72;;;-1.70;53.63
75617;BME280;64200;55.426;37.758;2024-02-21T09:43:41;99976.59;;;-1.50;54.26
75617;BME280;64200;55.426;37.758;2024-02-21T09:49:04;99994.75;;;-1.69;54.66
75617;BME280;64200;55.426;37.758;2024-02-21T09:54:08;99989.75;;;-1.22;53.53
75617;BME280;64200;55.426;37.758;2024-02-21T09:59:09;99998.91;;;-1.03;53.51
75617;BME280;64200;55.426;37.758;2024-02-21T10:04:11;99977.56;;;-1.32;52.92
75617;BME280;64200;55.426;37.758;2024-02-21T10:14:23;99994.72;;;-1.72;54.53
75617;BME280;64200;55.426;37.758;2024-02-21T10:19:23;99964.56;;;-2.14;55.85
75617;BME280;64200;55.426;37.758;2024-02-21T10:24:27;99985.09;;;-1.59;54.31
75617;BME280;64200;55.426;37.758;2024-02-21T10:29:30;99955.34;;;-1.64;54.88
75617;BME280;64200;55.426;37.758;2024-02-21T10:34:30;99970.50;;;-1.70;55.54
75617;BME280;64200;55.426;37.758;2024-02-21T10:39:38;99966.69;;;-1.62;54.00
75617;BME280;64200;55.426;37.758;2024-02-21T10:44:40;99961.16;;;-1.25;53.96
75617;BME280;64200;55.426;37.758;2024-02-21T10:49:41;99972.88;;;-0.79;52.61
75617;BME280;64200;55.426;37.758;2024-02-21T10:54:48;99959.31;;;-1.13;53.53
75617;BME280;64200;55.426;37.758;2024-02-21T10:59:52;99951.63;;;-2.17;56.61
75617;BME280;64200;55.426;37.758;2024-02-21T11:04:54;99960.31;;;-1.73;55.67
75617;BME280;64200;55.426;37.758;2024-02-21T11:09:55;99977.28;;;-1.95;55.59
75617;BME280;64200;55.426;37.758;2024-02-21T11:15:06;99961.69;;;-1.56;54.75
75617;BME280;64200;55.426;37.758;2024-02-21T11:20:13;99963.97;;;-1.62;55.39
75617;BME280;64200;55.426;37.758;2024-02-21T11:25:21;99948.81;;;-1.52;55.10
75617;BME280;64200;55.426;37.758;2024-02-21T11:30:27;99949.19;;;-1.09;54.58
75617;BME280;64200;55.426;37.758;2024-02-21T11:35:31;99951.63;;;-1.83;56.24
75617;BME280;64200;55.426;37.758;2024-02-21T11:40:33;99931.94;;;-1.96;56.15
75617;BME280;64200;55.426;37.758;2024-02-21T11:45:34;99917.88;;;-1.98;56.14
75617;BME280;64200;55.426;37.758;2024-02-21T11:50:35;99924.69;;;-1.81;56.56
75617;BME280;64200;55.426;37.758;2024-02-21T11:55:40;99926.47;;;-2.30;57.60
75617;BME280;64200;55.426;37.758;2024-02-21T12:00:40;99923.00;;;-1.55;55.93
75617;BME280;64200;55.426;37.758;2024-02-21T12:05:41;99928.69;;;-1.74;55.69
75617;BME280;64200;55.426;37.758;2024-02-21T12:10:42;99915.88;;;-2.65;58.73
75617;BME280;64200;55.426;37.758;2024-02-21T12:15:47;99911.25;;;-1.97;58.02
75617;BME280;64200;55.426;37.758;2024-02-21T12:20:49;99910.44;;;-2.01;57.00
75617;BME280;64200;55.426;37.758;2024-02-21T12:25:51;99901.47;;;-2.01;57.54
75617;BME280;64200;55.426;37.758;2024-02-21T12:30:54;99915.69;;;-1.44;56.17
75617;BME280;64200;55.426;37.758;2024-02-21T12:35:55;99895.81;;;-1.33;55.68
75617;BME280;64200;55.426;37.758;2024-02-21T12:40:56;99897.59;;;-1.55;55.97
75617;BME280;64200;55.426;37.758;2024-02-21T12:46:00;99893.63;;;-2.03;57.67
75617;BME280;64200;55.426;37.758;2024-02-21T12:51:01;99895.06;;;-2.13;57.18
75617;BME280;64200;55.426;37.758;2024-02-21T12:56:02;99877.41;;;-1.85;55.91
75617;BME280;64200;55.426;37.758;2024-02-21T13:01:05;99907.59;;;-2.45;57.63
75617;BME280;64200;55.426;37.758;2024-02-21T13:06:06;99885.66;;;-2.19;57.42
75617;BME280;64200;55.426;37.758;2024-02-21T13:11:12;99883.16;;;-2.31;57.36
75617;BME280;64200;55.426;37.758;2024-02-21T13:16:12;99875.44;;;-1.84;56.84
75617;BME280;64200;55.426;37.758;2024-02-21T13:21:13;99889.63;;;-2.43;58.13
75617;BME280;64200;55.426;37.758;2024-02-21T13:26:14;99888.38;;;-1.81;57.32
75617;BME280;64200;55.426;37.758;2024-02-21T13:31:14;99888.50;;;-2.42;57.73
75617;BME280;64200;55.426;37.758;2024-02-21T13:36:16;99891.88;;;-2.18;57.48
75617;BME280;64200;55.426;37.758;2024-02-21T13:41:17;99890.75;;;-2.14;57.02
75617;BME280;64200;55.426;37.758;2024-02-21T13:46:18;99901.16;;;-2.60;57.95
75617;BME280;64200;55.426;37.758;2024-02-21T13:51:18;99893.47;;;-2.51;58.24
75617;BME280;64200;55.426;37.758;2024-02-21T13:56:20;99890.28;;;-2.84;59.56
75617;BME280;64200;55.426;37.758;2024-02-21T14:01:21;99887.50;;;-2.60;58.43
75617;BME280;64200;55.426;37.758;2024-02-21T14:06:21;99891.31;;;-3.22;60.50
75617;BME280;64200;55.426;37.758;2024-02-21T14:11:22;99884.16;;;-2.47;58.78
75617;BME280;64200;55.426;37.758;2024-02-21T14:16:23;99903.72;;;-2.41;58.40
75617;BME280;64200;55.426;37.758;2024-02-21T14:21:23;99893.13;;;-3.30;60.44
75617;BME280;64200;55.426;37.758;2024-02-21T14:26:24;99903.41;;;-2.66;59.58
75617;BME280;64200;55.426;37.758;2024-02-21T14:31:25;99909.06;;;-2.78;59.75
75617;BME280;64200;55.426;37.758;2024-02-21T14:36:26;99917.19;;;-2.86;59.82
75617;BME280;64200;55.426;37.758;2024-02-21T14:41:27;99897.72;;;-2.84;60.09
75617;BME280;64200;55.426;37.758;2024-02-21T14:46:28;99911.28;;;-2.88;60.48
75617;BME280;64200;55.426;37.758;2024-02-21T14:51:29;99895.44;;;-2.78;60.01
75617;BME280;64200;55.426;37.758;2024-02-21T14:56:31;99907.59;;;-3.26;61.68
75617;BME280;64200;55.426;37.758;2024-02-21T15:01:37;99904.31;;;-3.12;61.38
75617;BME280;64200;55.426;37.758;2024-02-21T15:06:41;99908.56;;;-3.14;61.78
75617;BME280;64200;55.426;37.758;2024-02-21T15:11:41;99904.19;;;-2.66;60.30
75617;BME280;64200;55.426;37.758;2024-02-21T15:16:43;99907.09;;;-2.82;59.96
75617;BME280;64200;55.426;37.758;2024-02-21T15:21:44;99929.50;;;-3.45;62.10
75617;BME280;64200;55.426;37.758;2024-02-21T15:26:45;99912.50;;;-3.12;61.35
75617;BME280;64200;55.426;37.758;2024-02-21T15:31:45;99920.41;;;-3.30;62.04
75617;BME280;64200;55.426;37.758;2024-02-21T15:36:46;99922.28;;;-2.84;60.58
75617;BME280;64200;55.426;37.758;2024-02-21T15:41:47;99923.16;;;-3.30;62.26
75617;BME280;64200;55.426;37.758;2024-02-21T15:46:48;99922.94;;;-2.91;60.72
75617;BME280;64200;55.426;37.758;2024-02-21T15:51:49;99907.81;;;-3.11;62.06
75617;BME280;64200;55.426;37.758;2024-02-21T15:56:50;99904.06;;;-3.03;62.13
75617;BME280;64200;55.426;37.758;2024-02-21T16:01:50;99906.09;;;-2.96;61.72
75617;BME280;64200;55.426;37.758;2024-02-21T16:06:51;99900.84;;;-3.09;61.87
75617;BME280;64200;55.426;37.758;2024-02-21T16:11:51;99900.44;;;-3.11;62.49
75617;BME280;64200;55.426;37.758;2024-02-21T16:16:52;99896.75;;;-2.95;61.85
75617;BME280;64200;55.426;37.758;2024-02-21T16:21:52;99890.34;;;-3.07;61.67
75617;BME280;64200;55.426;37.758;2024-02-21T16:26:53;99880.59;;;-3.08;62.24
75617;BME280;64200;55.426;37.758;2024-02-21T16:31:54;99903.59;;;-3.09;62.28
75617;BME280;64200;55.426;37.758;2024-02-21T16:36:55;99866.47;;;-3.40;63.35
75617;BME280;64200;55.426;37.758;2024-02-21T16:41:57;99873.44;;;-3.43;64.16
75617;BME280;64200;55.426;37.758;2024-02-21T16:47:04;99874.41;;;-3.05;62.29
75617;BME280;64200;55.426;37.758;2024-02-21T16:52:05;99855.00;;;-3.49;64.20
75617;BME280;64200;55.426;37.758;2024-02-21T16:57:05;99881.31;;;-3.84;65.42
75617;BME280;64200;55.426;37.758;2024-02-21T17:02:07;99851.75;;;-3.59;64.76
75617;BME280;64200;55.426;37.758;2024-02-21T17:07:07;99862.28;;;-3.34;64.13
75617;BME280;64200;55.426;37.758;2024-02-21T17:12:08;99856.09;;;-3.31;63.51
75617;BME280;64200;55.426;37.758;2024-02-21T17:17:08;99852.78;;;-3.17;63.49
75617;BME280;64200;55.426;37.758;2024-02-21T17:22:09;99847.88;;;-3.34;64.53
75617;BME280;64200;55.426;37.758;2024-02-21T17:27:10;99854.03;;;-3.38;64.86
75617;BME280;64200;55.426;37.758;2024-02-21T17:32:11;99850.16;;;-3.37;64.24
75617;BME280;64200;55.426;37.758;2024-02-21T17:37:11;99848.16;;;-3.40;64.84
75617;BME280;64200;55.426;37.758;2024-02-21T17:42:12;99840.97;;;-2.98;64.00
75617;BME280;64200;55.426;37.758;2024-02-21T17:47:12;99840.72;;;-3.16;63.49
75617;BME280;64200;55.426;37.758;2024-02-21T17:52:13;99844.06;;;-3.26;64.53
75617;BME280;64200;55.426;37.758;2024-02-21T17:57:14;99833.31;;;-3.42;65.49
75617;BME280;64200;55.426;37.758;2024-02-21T18:02:15;99841.94;;;-3.40;66.56
75617;BME280;64200;55.426;37.758;2024-02-21T18:07:20;99836.09;;;-3.89;67.53
75617;BME280;64200;55.426;37.758;2024-02-21T18:12:26;99832.31;;;-3.57;67.61
75617;BME280;64200;55.426;37.758;2024-02-21T18:17:27;99828.19;;;-3.47;66.84
75617;BME280;64200;55.426;37.758;2024-02-21T18:22:28;99821.59;;;-3.69;67.14
75617;BME280;64200;55.426;37.758;2024-02-21T18:27:28;99826.00;;;-3.61;67.32
75617;BME280;64200;55.426;37.758;2024-02-21T18:32:30;99818.78;;;-3.50;66.67
75617;BME280;64200;55.426;37.758;2024-02-21T18:37:30;99826.38;;;-3.63;67.37
75617;BME280;64200;55.426;37.758;2024-02-21T18:42:32;99832.59;;;-3.39;66.59
75617;BME280;64200;55.426;37.758;2024-02-21T18:47:32;99792.66;;;-3.51;66.17
75617;BME280;64200;55.426;37.758;2024-02-21T18:52:34;99820.66;;;-3.54;66.54
75617;BME280;64200;55.426;37.758;2024-02-21T18:57:34;99805.25;;;-3.93;67.92
75617;BME280;64200;55.426;37.758;2024-02-21T19:02:35;99794.56;;;-3.55;67.31
75617;BME280;64200;55.426;37.758;2024-02-21T19:07:36;99811.41;;;-3.23;65.90
75617;BME280;64200;55.426;37.758;2024-02-21T19:12:37;99801.19;;;-3.56;67.09
75617;BME280;64200;55.426;37.758;2024-02-21T19:17:38;99815.28;;;-3.50;67.14
75617;BME280;64200;55.426;37.758;2024-02-21T19:22:39;99804.00;;;-3.76;68.13
75617;BME280;64200;55.426;37.758;2024-02-21T19:27:41;99793.50;;;-3.47;67.21
75617;BME280;64200;55.426;37.758;2024-02-21T19:32:42;99799.78;;;-3.46;66.88
75617;BME280;64200;55.426;37.758;2024-02-21T19:37:42;99808.78;;;-3.42;67.02
75617;BME280;64200;55.426;37.758;2024-02-21T19:42:43;99796.88;;;-3.30;66.96
75617;BME280;64200;55.426;37.758;2024-02-21T19:47:44;99803.16;;;-3.53;67.71
75617;BME280;64200;55.426;37.758;2024-02-21T19:52:45;99793.91;;;-3.72;68.36
75617;BME280;64200;55.426;37.758;2024-02-21T19:57:45;99802.03;;;-3.52;68.19
75617;BME280;64200;55.426;37.758;2024-02-21T20:02:46;99802.69;;;-3.32;67.30
75617;BME280;64200;55.426;37.758;2024-02-21T20:07:49;99796.91;;;-3.00;66.87
75617;BME280;64200;55.426;37.758;2024-02-21T20:12:49;99796.00;;;-3.61;68.81
75617;BME280;64200;55.426;37.758;2024-02-21T20:17:50;99793.09;;;-3.49;69.23
75617;BME280;64200;55.426;37.758;2024-02-21T20:22:50;99791.13;;;-3.22;67.99
75617;BME280;64200;55.426;37.758;2024-02-21T20:27:51;99781.44;;;-3.19;68.01
75617;BME280;64200;55.426;37.758;2024-02-21T20:32:51;99788.75;;;-2.96;67.42
75617;BME280;64200;55.426;37.758;2024-02-21T20:37:53;99779.44;;;-3.22;67.97
75617;BME280;64200;55.426;37.758;2024-02-21T20:42:53;99779.00;;;-3.55;68.72
75617;BME280;64200;55.426;37.758;2024-02-21T20:47:54;99763.75;;;-3.29;68.52
75617;BME280;64200;55.426;37.758;2024-02-21T20:52:54;99765.34;;;-3.28;67.88
75617;BME280;64200;55.426;37.758;2024-02-21T20:57:55;99755.34;;;-2.86;66.74
75617;BME280;64200;55.426;37.758;2024-02-21T21:02:55;99754.25;;;-3.12;67.29
75617;BME280;64200;55.426;37.758;2024-02-21T21:07:56;99739.09;;;-3.36;68.25
75617;BME280;64200;55.426;37.758;2024-02-21T21:12:56;99759.47;;;-3.30;68.98
75617;BME280;64200;55.426;37.758;2024-02-21T21:17:57;99748.41;;;-3.10;66.97
75617;BME280;64200;55.426;37.758;2024-02-21T21:22:58;99759.84;;;-2.67;66.56
75617;BME280;64200;55.426;37.758;2024-02-21T21:27:58;99762.84;;;-2.79;66.46
75617;BME280;64200;55.426;37.758;2024-02-21T21:32:58;99767.63;;;-3.03;67.36
75617;BME280;64200;55.426;37.758;2024-02-21T21:37:59;99746.69;;;-3.53;68.22
75617;BME280;64200;55.426;37.758;2024-02-21T21:43:00;99757.19;;;-3.24;67.82
75617;BME280;64200;55.426;37.758;2024-02-21T21:48:02;99754.75;;;-3.03;67.67
75617;BME280;64200;55.426;37.758;2024-02-21T21:53:02;99759.09;;;-2.98;67.17
75617;BME280;64200;55.426;37.758;2024-02-21T21:58:03;99758.41;;;-3.22;68.40
75617;BME280;64200;55.426;37.758;2024-02-21T22:03:04;99739.13;;;-3.06;68.24
75617;BME280;64200;55.426;37.758;2024-02-21T22:08:04;99731.94;;;-3.21;68.88
75617;BME280;64200;55.426;37.758;2024-02-21T22:13:05;99726.13;;;-3.16;68.46
75617;BME280;64200;55.426;37.758;2024-02-21T22:18:05;99711.19;;;-2.92;67.35
75617;BME280;64200;55.426;37.758;2024-02-21T22:23:06;99733.38;;;-2.63;67.50
75617;BME280;64200;55.426;37.758;2024-02-21T22:28:07;99741.19;;;-2.95;68.61
75617;BME280;64200;55.426;37.758;2024-02-21T22:33:07;99733.19;;;-2.81;67.50
75617;BME280;64200;55.426;37.758;2024-02-21T22:38:09;99721.31;;;-2.96;68.79
75617;BME280;64200;55.426;37.758;2024-02-21T22:43:10;99720.56;;;-2.93;69.94
75617;BME280;64200;55.426;37.758;2024-02-21T22:48:10;99718.97;;;-2.97;69.24
75617;BME280;64200;55.426;37.758;2024-02-21T22:53:11;99700.47;;;-3.11;69.12
75617;BME280;64200;55.426;37.758;2024-02-21T22:58:11;99719.94;;;-2.79;67.40
75617;BME280;64200;55.426;37.758;2024-02-21T23:03:12;99720.19;;;-2.91;67.84
75617;BME280;64200;55.426;37.758;2024-02-21T23:08:12;99708.31;;;-3.06;68.38
75617;BME280;64200;55.426;37.758;2024-02-21T23:13:13;99708.78;;;-2.63;67.48
75617;BME280;64200;55.426;37.758;2024-02-21T23:18:13;99705.31;;;-2.56;66.81
75617;BME280;64200;55.426;37.758;2024-02-21T23:23:14;99711.53;;;-2.97;67.84
75617;BME280;64200;55.426;37.758;2024-02-21T23:28:14;99696.94;;;-2.78;67.95
75617;BME280;64200;55.426;37.758;2024-02-21T23:33:15;99695.13;;;-3.01;68.63
75617;BME280;64200;55.426;37.758;2024-02-21T23:38:15;99679.81;;;-3.43;69.84
75617;BME280;64200;55.426;37.758;2024-02-21T23:43:15;99684.94;;;-3.38;69.28
75617;BME280;64200;55.426;37.758;2024-02-21T23:48:16;99685.53;;;-2.87;68.17
75617;BME280;64200;55.426;37.758;2024-02-21T23:53:16;99696.34;;;-2.60;66.72
75617;BME280;64200;55.426;37.758;2024-02-21T23:58:17;99689.16;;;-3.10;68.51
